createdAt,value
2016-06-14T20:46:16.111Z,75.62
2016-06-14T20:47:14.972Z,75.9
2016-06-14T20:48:14.803Z,75.2
2016-06-14T20:49:14.932Z,75.23
2016-06-14T20:50:14.731Z,75.42
2016-06-14T20:51:14.532Z,75.23
2016-06-14T20:52:14.660Z,75.38
2016-06-14T20:53:14.772Z,75.57
2016-06-14T20:54:14.619Z,75.96
2016-06-14T20:55:14.638Z,75.87
2016-06-14T20:56:14.875Z,75.38
2016-06-14T20:57:14.862Z,75.57
2016-06-14T20:58:15.006Z,75.87
2016-06-14T20:59:28.650Z,75.96
2016-06-14T21:00:15.387Z,75.96
2016-06-14T21:02:15.097Z,75.77
2016-06-14T21:04:15.150Z,75.96
2016-06-14T21:05:14.403Z,75.96
2016-06-14T21:06:15.281Z,75.96
2016-06-14T21:07:14.378Z,75.77
2016-06-14T21:08:14.443Z,75.96
2016-06-14T21:09:14.321Z,75.96
2016-06-14T21:10:14.418Z,75.87
2016-06-14T21:11:14.296Z,75.96
2016-06-14T21:12:14.283Z,76.34
2016-06-14T21:13:14.271Z,76.64
2016-06-14T21:14:14.431Z,76.44
2016-06-14T21:15:14.200Z,76.34
2016-06-14T21:16:14.171Z,76.34
2016-06-14T21:17:14.190Z,76.44
2016-06-14T21:18:14.177Z,76.06
2016-06-14T21:19:13.962Z,76.06
2016-06-14T21:20:14.324Z,76.06
2016-06-14T21:21:14.061Z,76.06
2016-06-14T21:22:16.174Z,76.15
2016-06-14T21:23:14.880Z,76.06
2016-06-14T21:24:28.086Z,75.77
2016-06-14T21:25:14.403Z,76.06
2016-06-14T21:27:14.143Z,76.25
2016-06-14T21:28:14.365Z,76.25
2016-06-14T21:29:15.242Z,76.06
2016-06-14T21:30:17.449Z,76.15
2016-06-14T21:31:14.561Z,76.44
2016-06-14T21:32:28.361Z,76.15
2016-06-14T21:33:14.536Z,76.34
2016-06-14T21:34:14.773Z,76.25
2016-06-14T21:35:14.120Z,76.15
2016-06-14T21:36:14.311Z,75.96
2016-06-14T21:37:14.126Z,76.34
2016-06-14T21:38:14.239Z,76.06
2016-06-14T21:39:13.991Z,76.15
2016-06-14T21:40:14.292Z,76.25
2016-06-14T21:41:14.405Z,76.34
2016-06-14T21:42:14.126Z,76.73
2016-06-14T21:43:13.801Z,76.54
2016-06-14T21:44:14.398Z,76.54
2016-06-14T21:45:13.995Z,76.34
2016-06-14T21:46:13.810Z,76.34
2016-06-14T21:47:13.657Z,76.15
2016-06-14T21:48:13.738Z,76.25
2016-06-14T21:49:13.663Z,76.25
2016-06-14T21:50:13.619Z,76.44
2016-06-14T21:51:13.825Z,76.44
2016-06-14T21:52:14.406Z,76.34
2016-06-14T21:53:14.144Z,76.34
2016-06-14T21:54:27.242Z,75.96
2016-06-14T21:55:13.728Z,76.54
2016-06-14T21:56:13.373Z,76.54
2016-06-14T21:57:13.437Z,76.54
2016-06-14T21:58:13.379Z,76.64
2016-06-14T21:59:13.287Z,76.82
2016-06-14T22:00:14.056Z,76.69
2016-06-14T22:01:13.918Z,76.79
2016-06-14T22:02:13.812Z,76.59
2016-06-14T22:03:13.956Z,76.59
2016-06-14T22:04:14.132Z,76.98
2016-06-14T22:05:13.962Z,76.69
2016-06-14T22:07:13.140Z,76.59
2016-06-14T22:08:14.346Z,76.88
2016-06-14T22:09:14.006Z,76.88
2016-06-14T22:10:13.430Z,76.98
2016-06-14T22:11:13.747Z,77.17
2016-06-14T22:12:13.390Z,76.4
2016-06-14T22:13:13.596Z,77.08
2016-06-14T22:14:13.693Z,77.08
2016-06-14T22:15:13.493Z,76.98
2016-06-14T22:16:13.168Z,77.08
2016-06-14T22:17:16.562Z,77.08
2016-06-14T22:18:13.440Z,76.4
2016-06-14T22:19:13.443Z,77.17
2016-06-14T22:20:13.367Z,77.17
2016-06-14T22:21:13.355Z,77.17
2016-06-14T22:22:12.811Z,76.79
2016-06-14T22:23:16.580Z,76.98
2016-06-14T22:24:13.583Z,76.79
2016-06-14T22:25:13.430Z,76.79
2016-06-14T22:26:14.090Z,76.69
2016-06-14T22:27:13.093Z,76.59
2016-06-14T22:28:13.267Z,76.69
2016-06-14T22:29:13.224Z,76.79
2016-06-14T22:30:12.805Z,76.88
2016-06-14T22:31:12.901Z,76.98
2016-06-14T22:32:27.108Z,76.88
2016-06-14T22:33:13.439Z,76.59
2016-06-14T22:34:13.129Z,76.69
2016-06-14T22:35:13.367Z,76.79
2016-06-14T22:36:12.777Z,76.88
2016-06-14T22:37:12.483Z,76.88
2016-06-14T22:38:13.142Z,76.88
2016-06-14T22:39:12.942Z,76.79
2016-06-14T22:40:13.148Z,76.88
2016-06-14T22:41:13.089Z,76.88
2016-06-14T22:42:12.982Z,77.17
2016-06-14T22:43:13.017Z,76.69
2016-06-14T22:44:12.973Z,76.69
2016-06-14T22:45:12.913Z,76.59
2016-06-14T22:46:13.213Z,76.69
2016-06-14T22:47:12.280Z,76.88
2016-06-14T22:48:12.297Z,76.69
2016-06-14T22:49:12.567Z,76.59
2016-06-14T22:50:12.226Z,76.79
2016-06-14T22:51:12.556Z,77.17
2016-06-14T22:52:12.888Z,76.5
2016-06-14T22:53:12.141Z,77.46
2016-06-14T22:54:12.143Z,77.36
2016-06-14T22:55:12.163Z,77.36
2016-06-14T22:56:12.088Z,77.26
2016-06-14T22:57:12.091Z,77.36
2016-06-14T22:58:12.298Z,77.08
2016-06-14T22:59:12.191Z,77.36
2016-06-14T23:00:12.726Z,77.56
2016-06-14T23:01:12.790Z,77.17
2016-06-14T23:02:13.076Z,77.46
2016-06-14T23:03:12.984Z,77.46
2016-06-14T23:04:12.753Z,77.46
2016-06-14T23:05:13.084Z,77.46
2016-06-14T23:06:11.853Z,77.46
2016-06-14T23:07:11.840Z,77.26
2016-06-14T23:08:11.812Z,77.26
2016-06-14T23:09:11.815Z,77.17
2016-06-14T23:10:11.803Z,77.17
2016-06-14T23:11:11.931Z,77.26
2016-06-14T23:12:11.809Z,77.08
2016-06-14T23:13:11.749Z,77.17
2016-06-14T23:14:11.705Z,77.36
2016-06-14T23:15:11.693Z,77.26
2016-06-14T23:16:11.633Z,77.36
2016-06-14T23:17:11.637Z,77.08
2016-06-14T23:19:11.690Z,77.26
2016-06-14T23:20:11.584Z,77.26
2016-06-14T23:21:11.555Z,77.26
2016-06-14T23:22:14.527Z,77.46
2016-06-14T23:23:12.202Z,77.65
2016-06-14T23:24:11.674Z,78.13
2016-06-14T23:25:11.505Z,77.84
2016-06-14T23:26:11.836Z,77.75
2016-06-14T23:27:11.245Z,77.94
2016-06-14T23:28:11.781Z,77.75
2016-06-14T23:29:11.392Z,77.94
2016-06-14T23:30:12.052Z,77.94
2016-06-14T23:31:11.321Z,78.03
2016-06-14T23:32:14.964Z,77.75
2016-06-14T23:33:11.936Z,77.65
2016-06-14T23:34:11.799Z,77.75
2016-06-14T23:35:11.598Z,78.03
2016-06-14T23:36:14.742Z,77.84
2016-06-14T23:37:11.433Z,78.13
2016-06-14T23:38:11.639Z,77.84
2016-06-14T23:39:11.439Z,77.84
2016-06-14T23:40:11.910Z,78.13
2016-06-14T23:41:11.601Z,77.94
2016-06-14T23:42:11.120Z,78.03
2016-06-14T23:43:11.372Z,78.03
2016-06-14T23:44:11.516Z,77.94
2016-06-14T23:45:11.097Z,77.75
2016-06-14T23:46:11.772Z,77.84
2016-06-14T23:47:11.666Z,77.75
2016-06-14T23:48:11.701Z,78.23
2016-06-14T23:49:11.516Z,78.38
2016-06-14T23:51:11.960Z,78.52
2016-06-14T23:52:11.697Z,78.61
2016-06-14T23:53:11.014Z,78
2016-06-14T23:54:11.766Z,78.61
2016-06-14T23:55:11.739Z,78.23
2016-06-14T23:56:11.053Z,78.09
2016-06-14T23:57:11.478Z,78.03
2016-06-14T23:58:11.168Z,78.52
2016-06-14T23:59:12.610Z,78.67
